createdAt,value
2022-11-13T00:01:19.609Z,9.17
2022-11-13T00:04:05.251Z,9.18
2022-11-13T00:06:54.792Z,9.18
2022-11-13T00:09:43.190Z,9.19
2022-11-13T00:12:29.316Z,9.20
2022-11-13T00:15:14.763Z,9.21
2022-11-13T00:18:03.276Z,9.20
2022-11-13T00:20:48.805Z,9.21
2022-11-13T00:23:36.925Z,9.21
2022-11-13T00:26:23.513Z,9.22
2022-11-13T00:29:08.650Z,9.24
2022-11-13T00:31:53.817Z,9.24
2022-11-13T00:34:47.758Z,9.24
2022-11-13T00:37:33.707Z,9.25
2022-11-13T00:40:18.618Z,9.22
2022-11-13T00:43:03.573Z,9.23
2022-11-13T00:45:48.596Z,9.23
2022-11-13T00:48:34.122Z,9.19
2022-11-13T00:51:19.926Z,9.19
2022-11-13T00:54:05.469Z,9.18
2022-11-13T00:56:55.928Z,9.19
2022-11-13T00:59:41.292Z,9.21
2022-11-13T01:02:27.126Z,9.23
2022-11-13T01:05:12.730Z,9.24
2022-11-13T01:07:58.528Z,9.22
2022-11-13T01:10:48.817Z,9.23
2022-11-13T01:13:39.366Z,9.23
2022-11-13T01:16:25.559Z,9.24
2022-11-13T01:19:11.066Z,9.24
2022-11-13T01:21:56.479Z,9.26
2022-11-13T01:24:41.829Z,9.26
2022-11-13T01:27:27.286Z,9.24
2022-11-13T01:30:12.651Z,9.25
2022-11-13T01:32:57.933Z,9.25
2022-11-13T01:35:42.908Z,9.24
2022-11-13T01:38:34.452Z,9.25
2022-11-13T01:41:25.240Z,9.29
2022-11-13T01:44:14.320Z,9.29
2022-11-13T01:46:59.875Z,9.29
2022-11-13T01:49:45.439Z,9.27
2022-11-13T01:52:31.865Z,9.26
2022-11-13T01:55:17.525Z,9.27
2022-11-13T01:58:03.383Z,9.31
2022-11-13T02:00:48.596Z,9.27
2022-11-13T02:03:33.854Z,9.24
2022-11-13T02:06:28.126Z,9.28
2022-11-13T02:09:17.820Z,9.25
2022-11-13T02:12:04.007Z,9.28
2022-11-13T02:14:52.907Z,9.30
2022-11-13T02:17:51.527Z,9.29
2022-11-13T02:21:02.706Z,9.32
2022-11-13T02:23:51.675Z,9.33
2022-11-13T02:26:46.106Z,9.34
2022-11-13T02:29:32.218Z,9.32
2022-11-13T02:32:17.289Z,9.32
2022-11-13T02:35:02.859Z,9.33
2022-11-13T02:37:50.897Z,9.37
2022-11-13T02:40:39.382Z,9.34
2022-11-13T02:43:25.044Z,9.34
2022-11-13T02:46:12.695Z,9.36
2022-11-13T02:49:02.447Z,9.38
2022-11-13T02:51:50.075Z,9.38
2022-11-13T02:54:38.777Z,9.37
2022-11-13T02:57:24.432Z,9.37
2022-11-13T03:00:23.457Z,9.38
2022-11-13T03:03:12.574Z,9.38
2022-11-13T03:05:57.956Z,9.38
2022-11-13T03:08:43.641Z,9.39
2022-11-13T03:11:37.759Z,9.40
2022-11-13T03:14:23.570Z,9.35
2022-11-13T03:17:25.941Z,9.33
2022-11-13T03:20:11.314Z,9.31
2022-11-13T03:23:01.053Z,9.33
2022-11-13T03:25:52.648Z,9.34
2022-11-13T03:28:40.908Z,9.32
2022-11-13T03:31:29.350Z,9.33
2022-11-13T03:34:14.718Z,9.35
2022-11-13T03:37:03.333Z,9.34
2022-11-13T03:39:48.400Z,9.34
2022-11-13T03:42:41.773Z,9.37
2022-11-13T03:45:27.076Z,9.37
2022-11-13T03:48:14.031Z,9.34
2022-11-13T03:50:59.784Z,9.35
2022-11-13T03:53:45.096Z,9.35
2022-11-13T03:56:30.163Z,9.36
2022-11-13T03:59:15.588Z,9.36
2022-11-13T04:02:00.764Z,9.33
2022-11-13T04:04:46.528Z,9.35
2022-11-13T04:07:32.059Z,9.36
2022-11-13T04:10:20.590Z,9.35
2022-11-13T04:13:08.637Z,9.31
2022-11-13T04:15:54.190Z,9.30
2022-11-13T04:18:40.358Z,9.33
2022-11-13T04:21:26.052Z,9.30
2022-11-13T04:24:11.609Z,9.33
2022-11-13T04:26:57.155Z,9.32
2022-11-13T04:29:44.216Z,9.33
2022-11-13T04:32:30.328Z,9.32
2022-11-13T04:35:15.816Z,9.31
2022-11-13T04:38:16.609Z,9.29
2022-11-13T04:41:20.915Z,9.30
2022-11-13T04:44:09.699Z,9.32
2022-11-13T04:47:02.863Z,9.31
2022-11-13T04:49:50.916Z,9.30
2022-11-13T04:52:36.241Z,9.27
2022-11-13T04:55:21.262Z,9.29
2022-11-13T04:58:06.179Z,9.28
2022-11-13T05:00:51.868Z,9.30
2022-11-13T05:03:37.606Z,9.30
2022-11-13T05:06:23.086Z,9.25
2022-11-13T05:09:08.700Z,9.26
2022-11-13T05:11:56.441Z,9.28
2022-11-13T05:14:42.073Z,9.26
2022-11-13T05:17:27.862Z,9.27
2022-11-13T05:20:26.740Z,9.28
2022-11-13T05:23:13.310Z,9.24
2022-11-13T05:26:04.688Z,9.27
2022-11-13T05:28:56.593Z,9.28
2022-11-13T05:31:42.158Z,9.29
2022-11-13T05:34:27.269Z,9.27
2022-11-13T05:37:13.172Z,9.29
2022-11-13T05:40:03.195Z,9.30
2022-11-13T05:42:48.683Z,9.30
2022-11-13T05:45:34.288Z,9.31
2022-11-13T05:48:21.761Z,9.32
2022-11-13T05:51:08.256Z,9.30
2022-11-13T05:53:55.639Z,9.30
2022-11-13T05:56:41.154Z,9.27
2022-11-13T05:59:26.468Z,9.28
2022-11-13T06:02:18.401Z,9.30
2022-11-13T06:05:03.970Z,9.29
2022-11-13T06:07:51.701Z,9.30
2022-11-13T06:10:37.292Z,9.29
2022-11-13T06:13:22.953Z,9.25
2022-11-13T06:16:10.373Z,9.45
2022-11-13T06:18:59.511Z,9.39
2022-11-13T06:21:51.172Z,9.56
2022-11-13T06:24:42.414Z,9.87
2022-11-13T06:27:31.654Z,9.83
2022-11-13T06:30:17.153Z,9.97
2022-11-13T06:33:02.539Z,10.12
2022-11-13T06:35:47.941Z,10.32
2022-11-13T06:38:36.445Z,10.35
2022-11-13T06:41:26.357Z,10.18
2022-11-13T06:44:12.327Z,9.98
2022-11-13T06:47:00.637Z,9.82
2022-11-13T06:49:45.829Z,9.73
2022-11-13T06:52:30.990Z,9.67
2022-11-13T06:58:46.453Z,9.56
2022-11-13T07:01:31.629Z,9.56
2022-11-13T07:04:17.158Z,9.56
2022-11-13T07:07:05.427Z,9.52
2022-11-13T07:09:50.731Z,9.44
2022-11-13T07:12:36.255Z,9.44
2022-11-13T07:15:21.430Z,9.45
2022-11-13T07:18:06.875Z,9.41
2022-11-13T07:20:51.978Z,9.41
2022-11-13T07:23:43.071Z,9.40
2022-11-13T07:26:31.792Z,9.40
2022-11-13T07:32:49.790Z,9.31
2022-11-13T07:35:39.363Z,9.33
2022-11-13T07:39:00.361Z,9.34
2022-11-13T07:41:59.841Z,9.26
2022-11-13T07:44:55.610Z,9.30
2022-11-13T07:51:13.274Z,9.35
2022-11-13T07:54:01.358Z,9.34
2022-11-13T07:56:47.554Z,9.30
2022-11-13T07:59:34.905Z,9.38
2022-11-13T08:06:31.056Z,9.50
2022-11-13T08:12:57.840Z,9.55
2022-11-13T08:16:22.408Z,9.54
2022-11-13T08:19:12.550Z,9.54
2022-11-13T08:25:42.773Z,9.57
2022-11-13T08:29:19.674Z,9.57
2022-11-13T08:36:04.163Z,9.55
2022-11-13T08:50:31.139Z,9.34
2022-11-13T08:53:19.161Z,9.37
2022-11-13T08:56:07.046Z,9.42
2022-11-13T08:58:53.251Z,9.47
2022-11-13T09:01:41.075Z,9.47
2022-11-13T09:04:32.803Z,9.51
2022-11-13T09:07:27.151Z,9.43
2022-11-13T09:10:18.348Z,9.49
2022-11-13T09:13:11.984Z,9.51
2022-11-13T09:16:18.230Z,9.52
2022-11-13T09:19:39.108Z,9.47
2022-11-13T09:24:03.429Z,9.54
2022-11-13T09:26:48.144Z,9.61
2022-11-13T09:29:34.212Z,9.54
2022-11-13T09:32:23.195Z,9.52
2022-11-13T09:35:09.309Z,9.54
2022-11-13T09:37:56.601Z,9.54
2022-11-13T09:40:44.873Z,9.47
2022-11-13T09:43:49.803Z,9.49
2022-11-13T09:46:38.364Z,9.50
2022-11-13T09:49:27.525Z,9.53
2022-11-13T09:52:14.092Z,9.55
2022-11-13T09:54:59.209Z,9.53
2022-11-13T09:57:56.185Z,9.53
2022-11-13T10:00:41.137Z,9.52
2022-11-13T10:04:00.733Z,9.51
2022-11-13T10:06:40.961Z,9.54
2022-11-13T10:09:47.103Z,9.59
2022-11-13T10:12:32.311Z,9.61
2022-11-13T10:15:17.399Z,9.53
2022-11-13T10:18:04.869Z,9.52
2022-11-13T10:20:51.007Z,9.45
2022-11-13T10:23:37.916Z,9.41
2022-11-13T10:26:24.788Z,9.46
2022-11-13T10:29:14.251Z,9.44
2022-11-13T10:32:00.155Z,9.51
2022-11-13T10:34:50.349Z,9.48
2022-11-13T10:41:12.393Z,9.57
2022-11-13T10:44:16.170Z,9.56
2022-11-13T10:47:48.936Z,9.56
2022-11-13T10:50:30.432Z,9.51
2022-11-13T10:53:19.169Z,9.59
2022-11-13T10:56:21.237Z,9.60
2022-11-13T10:59:16.887Z,9.58
2022-11-13T11:02:09.249Z,9.52
2022-11-13T11:05:06.248Z,9.58
2022-11-13T11:07:52.054Z,9.66
2022-11-13T11:10:57.762Z,9.62
2022-11-13T11:13:43.192Z,9.66
2022-11-13T11:16:28.299Z,9.63
2022-11-13T11:19:13.517Z,9.60
2022-11-13T11:22:02.296Z,9.60
2022-11-13T11:24:51.747Z,9.53
2022-11-13T11:27:39.734Z,9.50
2022-11-13T11:30:26.678Z,9.52
2022-11-13T11:33:32.657Z,9.56
2022-11-13T11:44:02.375Z,9.45
2022-11-13T11:46:51.603Z,9.52
2022-11-13T11:49:40.297Z,9.53
2022-11-13T11:52:45.114Z,9.51
2022-11-13T11:55:49.295Z,9.59
2022-11-13T11:58:40.222Z,9.64
2022-11-13T12:01:34.743Z,9.61
2022-11-13T12:04:24.786Z,9.59
2022-11-13T12:07:13.317Z,9.58
2022-11-13T12:10:17.757Z,9.52
2022-11-13T12:13:09.469Z,9.55
2022-11-13T12:16:01.035Z,9.55
2022-11-13T12:18:46.809Z,9.64
2022-11-13T12:21:40.652Z,9.68
2022-11-13T12:24:37.227Z,9.71
2022-11-13T12:27:26.120Z,9.77
2022-11-13T12:30:16.309Z,9.68
2022-11-13T12:33:14.181Z,9.77
2022-11-13T12:35:59.624Z,9.83
2022-11-13T12:38:54.962Z,9.78
2022-11-13T12:41:50.519Z,9.78
2022-11-13T12:44:43.086Z,9.93
2022-11-13T12:47:28.406Z,9.92
2022-11-13T12:50:22.117Z,10.08
2022-11-13T12:53:08.796Z,10.24
2022-11-13T12:56:00.905Z,10.49
2022-11-13T12:59:15.453Z,10.61
2022-11-13T13:02:07.937Z,10.64
2022-11-13T13:05:12.049Z,10.70
2022-11-13T13:08:15.829Z,10.70
2022-11-13T13:11:13.146Z,10.91
2022-11-13T13:14:06.260Z,10.92
2022-11-13T13:16:51.669Z,10.82
2022-11-13T13:19:37.174Z,10.93
2022-11-13T13:22:27.213Z,10.97
2022-11-13T13:25:28.028Z,11.00
2022-11-13T13:28:18.246Z,10.93
2022-11-13T13:31:03.805Z,10.89
2022-11-13T13:33:51.828Z,10.85
2022-11-13T13:36:49.026Z,10.94
2022-11-13T13:39:52.758Z,11.25
2022-11-13T13:42:43.743Z,11.29
2022-11-13T13:45:37.356Z,11.73
2022-11-13T13:48:24.969Z,11.72
2022-11-13T13:51:17.613Z,11.73
2022-11-13T13:54:05.358Z,11.72
2022-11-13T13:56:50.844Z,11.62
2022-11-13T13:59:36.702Z,11.75
2022-11-13T14:02:23.411Z,11.81
2022-11-13T14:05:24.254Z,11.85
2022-11-13T14:08:19.526Z,12.05
2022-11-13T14:11:27.176Z,11.75
2022-11-13T14:14:16.986Z,11.55
2022-11-13T14:17:03.931Z,11.67
2022-11-13T14:19:52.843Z,11.45
2022-11-13T14:22:38.032Z,10.98
2022-11-13T14:25:26.326Z,10.77
2022-11-13T14:28:32.146Z,10.64
2022-11-13T14:31:17.599Z,10.41
2022-11-13T14:34:07.479Z,10.18
2022-11-13T14:36:52.938Z,10.00
2022-11-13T14:39:38.624Z,9.82
2022-11-13T14:42:36.777Z,9.70
2022-11-13T14:45:23.653Z,9.55
2022-11-13T14:48:19.585Z,9.56
2022-11-13T14:51:05.689Z,9.37
2022-11-13T14:54:17.450Z,9.32
2022-11-13T14:57:12.842Z,9.30
2022-11-13T14:59:58.021Z,9.26
2022-11-13T15:02:43.118Z,9.16
2022-11-13T15:05:28.304Z,9.04
2022-11-13T15:08:13.711Z,9.05
2022-11-13T15:10:59.159Z,9.03
2022-11-13T15:13:44.812Z,8.98
2022-11-13T15:16:31.396Z,8.92
2022-11-13T15:19:18.576Z,8.78
2022-11-13T15:25:19.589Z,8.64
2022-11-13T15:28:04.961Z,8.71
2022-11-13T15:30:49.978Z,8.78
2022-11-13T15:33:35.493Z,8.75
2022-11-13T15:36:20.490Z,8.78
2022-11-13T15:39:07.364Z,8.78
2022-11-13T15:41:54.142Z,8.77
2022-11-13T15:44:40.851Z,8.69
2022-11-13T15:47:26.577Z,8.55
2022-11-13T15:50:14.789Z,8.50
2022-11-13T15:53:05.064Z,8.39
2022-11-13T15:55:50.764Z,8.41
2022-11-13T15:58:35.849Z,8.37
2022-11-13T16:01:21.131Z,8.43
2022-11-13T16:04:06.723Z,8.33
2022-11-13T16:06:51.740Z,8.25
2022-11-13T16:09:37.308Z,8.21
2022-11-13T16:12:22.709Z,8.06
2022-11-13T16:15:07.990Z,8.08
2022-11-13T16:17:53.833Z,8.08
2022-11-13T16:20:39.362Z,8.20
2022-11-13T16:23:24.908Z,8.00
2022-11-13T16:26:17.728Z,8.06
2022-11-13T16:29:13.809Z,8.03
2022-11-13T16:31:59.296Z,8.08
2022-11-13T16:34:44.398Z,7.95
2022-11-13T16:37:29.630Z,7.98
2022-11-13T16:40:20.701Z,8.01
2022-11-13T16:43:06.382Z,8.09
2022-11-13T16:45:52.023Z,8.00
2022-11-13T16:48:37.158Z,7.99
2022-11-13T16:51:22.741Z,7.91
2022-11-13T16:54:07.659Z,7.82
2022-11-13T16:56:53.113Z,7.87
2022-11-13T16:59:38.454Z,7.86
2022-11-13T17:02:23.673Z,7.89
2022-11-13T17:05:13.014Z,7.91
2022-11-13T17:07:58.991Z,7.94
2022-11-13T17:10:44.719Z,8.04
2022-11-13T17:13:30.334Z,8.02
2022-11-13T17:16:15.877Z,8.02
2022-11-13T17:19:01.839Z,7.97
2022-11-13T17:21:47.093Z,7.96
2022-11-13T17:24:32.355Z,7.96
2022-11-13T17:27:17.593Z,7.93
2022-11-13T17:30:02.740Z,7.78
2022-11-13T17:32:47.795Z,7.74
2022-11-13T17:35:32.724Z,7.69
2022-11-13T17:38:17.971Z,7.72
2022-11-13T17:41:07.374Z,7.76
2022-11-13T17:43:55.658Z,7.79
2022-11-13T17:46:44.989Z,7.77
2022-11-13T17:49:30.184Z,7.84
2022-11-13T17:52:15.566Z,7.78
2022-11-13T17:55:01.299Z,7.81
2022-11-13T17:57:46.412Z,7.63
2022-11-13T18:00:31.702Z,7.75
2022-11-13T18:03:17.174Z,7.82
2022-11-13T18:06:09.655Z,7.80
2022-11-13T18:08:55.160Z,7.87
2022-11-13T18:11:40.654Z,7.87
2022-11-13T18:14:26.201Z,7.81
2022-11-13T18:17:11.415Z,7.83
2022-11-13T18:20:01.465Z,7.84
2022-11-13T18:22:47.500Z,7.76
2022-11-13T18:25:38.493Z,7.80
2022-11-13T18:28:24.919Z,7.82
2022-11-13T18:31:12.329Z,7.88
2022-11-13T18:33:58.689Z,7.85
2022-11-13T18:36:44.278Z,7.88
2022-11-13T18:39:29.456Z,7.89
2022-11-13T18:42:14.608Z,7.90
2022-11-13T18:45:05.475Z,7.85
2022-11-13T18:47:51.433Z,7.81
2022-11-13T18:50:38.564Z,7.76
2022-11-13T18:53:23.850Z,7.65
2022-11-13T18:56:10.860Z,7.57
2022-11-13T18:58:56.561Z,7.59
2022-11-13T19:01:42.405Z,7.71
2022-11-13T19:04:27.584Z,7.71
2022-11-13T19:07:13.275Z,7.54
2022-11-13T19:09:58.894Z,7.60
2022-11-13T19:12:44.083Z,7.74
2022-11-13T19:15:29.317Z,7.74
2022-11-13T19:18:14.651Z,7.70
2022-11-13T19:21:03.983Z,7.69
2022-11-13T19:23:49.265Z,7.74
2022-11-13T19:26:34.967Z,7.71
2022-11-13T19:29:20.575Z,7.60
2022-11-13T19:32:06.580Z,7.62
2022-11-13T19:34:52.041Z,7.68
2022-11-13T19:37:37.522Z,7.69
2022-11-13T19:40:23.110Z,7.70
2022-11-13T19:43:08.366Z,7.73
2022-11-13T19:45:53.865Z,7.75
2022-11-13T19:48:40.274Z,7.73
2022-11-13T19:51:26.434Z,7.53
2022-11-13T19:54:12.003Z,7.58
2022-11-13T19:57:00.311Z,7.64
2022-11-13T20:00:23.195Z,7.64
2022-11-13T20:07:09.769Z,7.61
2022-11-13T20:09:55.075Z,7.53
2022-11-13T20:12:41.774Z,7.45
2022-11-13T20:15:27.154Z,7.37
2022-11-13T20:18:14.275Z,7.38
2022-11-13T20:21:10.444Z,7.41
2022-11-13T20:24:02.423Z,7.33
2022-11-13T20:26:48.109Z,7.26
2022-11-13T20:29:33.152Z,7.20
2022-11-13T20:32:21.614Z,7.24
2022-11-13T20:35:07.998Z,7.28
2022-11-13T20:37:53.581Z,7.29
2022-11-13T20:40:38.859Z,7.31
2022-11-13T20:43:24.548Z,7.17
2022-11-13T20:46:12.533Z,7.17
2022-11-13T20:48:57.789Z,6.96
2022-11-13T20:51:51.472Z,6.95
2022-11-13T20:54:39.882Z,7.00
2022-11-13T20:57:25.052Z,6.98
2022-11-13T21:00:10.464Z,7.10
2022-11-13T21:02:59.207Z,7.16
2022-11-13T21:05:44.760Z,7.22
2022-11-13T21:08:30.469Z,7.17
2022-11-13T21:11:19.094Z,7.17
2022-11-13T21:14:04.411Z,7.13
2022-11-13T21:16:49.904Z,7.14
2022-11-13T21:19:35.426Z,7.15
2022-11-13T21:22:20.845Z,7.12
2022-11-13T21:25:08.175Z,7.06
2022-11-13T21:27:55.867Z,7.08
2022-11-13T21:30:41.834Z,6.95
2022-11-13T21:33:27.499Z,7.02
2022-11-13T21:36:14.132Z,7.06
2022-11-13T21:38:59.533Z,7.07
2022-11-13T21:41:45.273Z,7.00
2022-11-13T21:44:33.872Z,7.03
2022-11-13T21:47:18.977Z,7.00
2022-11-13T21:50:07.527Z,6.86
2022-11-13T21:52:52.701Z,6.98
2022-11-13T21:55:38.343Z,6.81
2022-11-13T21:58:33.895Z,6.92
2022-11-13T22:01:19.166Z,6.82
2022-11-13T22:04:04.863Z,6.87
2022-11-13T22:06:50.710Z,6.82
2022-11-13T22:09:38.301Z,6.84
2022-11-13T22:12:23.832Z,6.77
2022-11-13T22:15:10.163Z,6.89
2022-11-13T22:17:55.416Z,6.83
2022-11-13T22:20:41.940Z,6.89
2022-11-13T22:23:27.569Z,6.82
2022-11-13T22:26:13.863Z,6.82
2022-11-13T22:28:59.816Z,6.90
2022-11-13T22:31:45.220Z,6.88
2022-11-13T22:34:30.777Z,6.92
2022-11-13T22:37:16.309Z,6.92
2022-11-13T22:40:01.924Z,6.89
2022-11-13T22:42:47.843Z,6.83
2022-11-13T22:45:33.604Z,6.73
2022-11-13T22:48:22.887Z,6.74
2022-11-13T22:51:10.021Z,6.83
2022-11-13T22:53:59.447Z,6.87
2022-11-13T22:56:47.189Z,6.88
2022-11-13T22:59:39.905Z,6.84
2022-11-13T23:02:30.471Z,6.88
2022-11-13T23:08:15.587Z,6.73
2022-11-13T23:11:01.255Z,6.76
2022-11-13T23:13:47.796Z,6.68
2022-11-13T23:16:33.937Z,6.72
2022-11-13T23:19:19.394Z,6.57
2022-11-13T23:22:05.200Z,6.52
2022-11-13T23:24:50.892Z,6.50
2022-11-13T23:27:36.475Z,6.66
2022-11-13T23:30:22.157Z,6.73
2022-11-13T23:33:14.125Z,6.80
2022-11-13T23:36:14.933Z,6.65
2022-11-13T23:39:01.028Z,6.62
2022-11-13T23:41:48.813Z,6.62
2022-11-13T23:44:40.426Z,6.76
2022-11-13T23:47:31.399Z,6.65
2022-11-13T23:50:16.825Z,6.63
2022-11-13T23:53:08.149Z,6.55
2022-11-13T23:56:00.845Z,6.58
2022-11-13T23:58:46.648Z,6.49
